createdAt,value
2019-03-03T00:02:31.273Z,61.55
2019-03-03T00:05:20.108Z,61.47
2019-03-03T00:08:08.947Z,61.54
2019-03-03T00:10:57.817Z,61.62
2019-03-03T00:13:46.613Z,61.46
2019-03-03T00:16:35.436Z,61.55
2019-03-03T00:19:24.314Z,61.79
2019-03-03T00:22:13.175Z,61.78
2019-03-03T00:25:02.040Z,61.80
2019-03-03T00:27:50.938Z,61.85
2019-03-03T00:30:39.915Z,61.86
2019-03-03T00:33:28.767Z,61.81
2019-03-03T00:39:46.021Z,61.86
2019-03-03T00:45:49.498Z,61.78
2019-03-03T00:48:50.571Z,61.54
2019-03-03T00:51:58.448Z,61.65
2019-03-03T00:58:15.715Z,61.42
2019-03-03T01:04:32.970Z,61.52
2019-03-03T01:07:40.799Z,61.51
2019-03-03T01:10:48.675Z,61.59
2019-03-03T01:13:56.561Z,61.61
2019-03-03T01:17:04.406Z,61.62
2019-03-03T01:20:12.277Z,61.68
2019-03-03T01:23:03.100Z,61.50
2019-03-03T01:25:51.435Z,61.63
2019-03-03T01:28:40.247Z,61.74
2019-03-03T01:31:21.829Z,61.75
2019-03-03T01:34:10.651Z,61.78
2019-03-03T01:36:59.507Z,61.88
2019-03-03T01:39:48.312Z,61.96
2019-03-03T01:42:37.231Z,62.07
2019-03-03T01:45:26.112Z,62.07
2019-03-03T01:48:14.964Z,62.08
2019-03-03T01:51:03.791Z,62.11
2019-03-03T01:53:52.624Z,61.95
2019-03-03T01:56:34.251Z,62.36
2019-03-03T01:59:23.065Z,62.08
2019-03-03T02:02:12.014Z,62.01
2019-03-03T02:05:00.905Z,61.95
2019-03-03T02:07:49.800Z,61.91
2019-03-03T02:10:38.649Z,61.65
2019-03-03T02:13:27.547Z,61.72
2019-03-03T02:16:16.453Z,61.52
2019-03-03T02:19:05.440Z,61.60
2019-03-03T02:21:54.273Z,61.38
2019-03-03T02:24:43.175Z,61.42
2019-03-03T02:27:32.034Z,61.33
2019-03-03T02:30:41.838Z,61.26
2019-03-03T02:33:30.649Z,61.27
2019-03-03T02:36:19.511Z,60.99
2019-03-03T02:39:27.629Z,61.02
2019-03-03T02:42:16.568Z,61.13
2019-03-03T02:45:26.290Z,60.89
2019-03-03T02:48:15.127Z,61.01
2019-03-03T02:54:18.496Z,60.94
2019-03-03T02:57:00.204Z,61.03
2019-03-03T02:59:49.047Z,61.02
2019-03-03T03:02:57.014Z,60.92
2019-03-03T03:05:40.782Z,61.02
2019-03-03T03:08:48.729Z,61.06
2019-03-03T03:11:56.764Z,60.93
2019-03-03T03:15:04.608Z,61.11
2019-03-03T03:21:08.291Z,61.23
2019-03-03T03:24:16.154Z,61.24
2019-03-03T03:30:33.567Z,61.22
2019-03-03T03:36:50.812Z,61.32
2019-03-03T03:43:08.060Z,61.29
2019-03-03T03:49:11.742Z,61.16
2019-03-03T03:52:19.619Z,61.14
2019-03-03T03:55:27.776Z,61.12
2019-03-03T03:58:35.630Z,61.16
2019-03-03T04:04:14.771Z,61.12
2019-03-03T04:07:22.760Z,61.24
2019-03-03T04:10:30.660Z,61.17
2019-03-03T04:13:38.589Z,61.14
2019-03-03T04:19:45.698Z,61.29
2019-03-03T04:22:53.519Z,61.40
2019-03-03T04:26:01.417Z,61.36
2019-03-03T04:29:09.248Z,61.36
2019-03-03T04:32:17.188Z,61.43
2019-03-03T04:35:01.823Z,61.33
2019-03-03T04:50:09.847Z,61.35
2019-03-03T04:53:17.694Z,61.24
2019-03-03T04:56:25.554Z,61.20
2019-03-03T04:59:33.423Z,61.03
2019-03-03T05:02:41.290Z,61.06
2019-03-03T05:08:44.879Z,61.00
2019-03-03T05:20:39.657Z,60.61
2019-03-03T05:23:28.500Z,60.54
2019-03-03T05:26:17.315Z,60.68
2019-03-03T05:29:06.146Z,60.77
2019-03-03T05:31:55.055Z,60.50
2019-03-03T05:34:43.856Z,60.48
2019-03-03T05:37:32.723Z,60.43
2019-03-03T05:40:21.515Z,60.42
2019-03-03T05:43:10.344Z,60.26
2019-03-03T05:45:59.279Z,60.11
2019-03-03T05:48:48.081Z,60.14
2019-03-03T05:51:29.931Z,60.13
2019-03-03T05:54:18.745Z,60.16
2019-03-03T05:57:07.574Z,60.16
2019-03-03T05:59:56.486Z,60.04
2019-03-03T06:02:45.343Z,59.80
2019-03-03T06:05:34.176Z,59.82
2019-03-03T06:08:23.022Z,59.85
2019-03-03T06:11:11.828Z,59.76
2019-03-03T06:14:00.683Z,59.57
2019-03-03T06:16:49.517Z,59.63
2019-03-03T06:19:38.355Z,59.65
2019-03-03T06:22:27.149Z,59.52
2019-03-03T06:25:16.060Z,59.54
2019-03-03T06:27:55.798Z,59.36
2019-03-03T06:30:44.645Z,59.29
2019-03-03T06:33:33.553Z,59.16
2019-03-03T06:36:22.422Z,59.32
2019-03-03T06:39:11.324Z,59.33
2019-03-03T06:42:00.142Z,59.40
2019-03-03T06:44:48.960Z,59.36
2019-03-03T06:47:37.802Z,59.43
2019-03-03T06:50:26.601Z,59.32
2019-03-03T06:53:15.527Z,59.35
2019-03-03T06:55:56.910Z,59.43
2019-03-03T06:58:39.207Z,59.43
2019-03-03T07:01:28.033Z,59.88
2019-03-03T07:04:16.889Z,60.16
2019-03-03T07:07:05.721Z,60.31
2019-03-03T07:09:54.548Z,60.74
2019-03-03T07:12:43.482Z,60.68
2019-03-03T07:15:32.384Z,60.80
2019-03-03T07:18:21.195Z,60.76
2019-03-03T07:21:10.033Z,60.42
2019-03-03T07:23:58.841Z,60.53
2019-03-03T07:26:47.777Z,60.46
2019-03-03T07:29:36.612Z,60.44
2019-03-03T07:32:25.457Z,60.45
2019-03-03T07:35:14.315Z,60.46
2019-03-03T07:38:03.163Z,60.19
2019-03-03T07:40:51.957Z,60.26
2019-03-03T07:43:40.809Z,60.45
2019-03-03T07:46:29.624Z,60.17
2019-03-03T07:49:18.479Z,60.35
2019-03-03T07:51:59.734Z,60.15
2019-03-03T07:54:48.560Z,60.26
2019-03-03T07:57:37.486Z,60.02
2019-03-03T08:00:26.466Z,60.22
2019-03-03T08:03:15.317Z,60.14
2019-03-03T08:06:04.215Z,60.12
2019-03-03T08:08:53.080Z,60.22
2019-03-03T08:11:41.936Z,60.19
2019-03-03T08:14:30.801Z,60.15
2019-03-03T08:17:19.662Z,60.07
2019-03-03T08:20:29.425Z,59.92
2019-03-03T08:23:18.242Z,59.84
2019-03-03T08:26:07.229Z,60.18
2019-03-03T08:28:56.039Z,60.02
2019-03-03T08:31:44.882Z,59.90
2019-03-03T08:34:33.702Z,59.88
2019-03-03T08:37:22.555Z,60.02
2019-03-03T08:40:12.040Z,59.85
2019-03-03T08:43:19.889Z,59.79
2019-03-03T08:55:31.942Z,59.63
2019-03-03T09:01:49.182Z,59.47
2019-03-03T09:04:57.139Z,59.49
2019-03-03T09:10:48.199Z,60.23
2019-03-03T09:16:51.747Z,60.37
2019-03-03T09:19:59.627Z,60.94
2019-03-03T09:22:48.284Z,61.23
2019-03-03T09:25:56.299Z,61.27
2019-03-03T09:29:04.154Z,61.75
2019-03-03T09:38:06.926Z,62.63
2019-03-03T09:41:14.917Z,63.03
2019-03-03T09:44:22.917Z,63.15
2019-03-03T09:50:40.307Z,63.69
2019-03-03T09:56:44.088Z,63.92
2019-03-03T09:59:51.968Z,63.67
2019-03-03T10:02:39.739Z,64.20
2019-03-03T10:05:47.694Z,64.48
2019-03-03T10:08:55.535Z,64.48
2019-03-03T10:15:02.657Z,64.53
2019-03-03T10:18:10.539Z,64.76
2019-03-03T10:21:18.425Z,64.85
2019-03-03T10:24:26.285Z,64.96
2019-03-03T10:27:34.235Z,64.90
2019-03-03T10:30:42.205Z,64.87
2019-03-03T10:33:50.109Z,65.13
2019-03-03T10:39:53.779Z,65.26
2019-03-03T10:43:01.653Z,65.27
2019-03-03T10:46:09.563Z,65.38
2019-03-03T10:49:17.519Z,65.60
2019-03-03T10:51:58.640Z,65.59
2019-03-03T10:58:15.903Z,65.64
2019-03-03T11:01:01.582Z,65.56
2019-03-03T11:04:09.605Z,65.89
2019-03-03T11:07:17.435Z,66.12
2019-03-03T11:16:18.835Z,66.29
2019-03-03T11:19:26.813Z,65.97
2019-03-03T11:22:34.838Z,66.19
2019-03-03T11:25:42.793Z,66.32
2019-03-03T11:28:50.664Z,66.37
2019-03-03T11:31:58.529Z,66.33
2019-03-03T11:35:06.391Z,66.16
2019-03-03T11:38:14.275Z,66.12
2019-03-03T11:41:22.098Z,66.30
2019-03-03T11:47:25.547Z,66.65
2019-03-03T11:53:32.789Z,66.93
2019-03-03T11:56:40.744Z,66.84
2019-03-03T11:59:48.965Z,66.75
2019-03-03T12:02:54.029Z,66.66
2019-03-03T12:05:58.610Z,66.80
2019-03-03T12:11:46.648Z,66.68
2019-03-03T12:14:35.305Z,67.02
2019-03-03T12:20:39.217Z,66.74
2019-03-03T12:26:46.391Z,66.22
2019-03-03T12:29:54.404Z,66.20
2019-03-03T12:33:02.248Z,66.35
2019-03-03T12:39:09.518Z,66.19
2019-03-03T12:42:17.417Z,65.46
2019-03-03T12:48:15.702Z,65.30
2019-03-03T12:54:33.113Z,64.76
2019-03-03T12:57:40.971Z,64.86
2019-03-03T13:00:48.928Z,64.30
2019-03-03T13:03:49.510Z,64.62
2019-03-03T13:06:57.461Z,64.17
2019-03-03T13:10:05.381Z,64.03
2019-03-03T13:13:13.261Z,64.09
2019-03-03T13:16:21.145Z,63.76
2019-03-03T13:22:37.720Z,63.74
2019-03-03T13:25:45.691Z,62.62
2019-03-03T13:28:25.246Z,63.05
2019-03-03T13:34:29.211Z,62.71
2019-03-03T13:37:37.087Z,62.35
2019-03-03T13:43:21.470Z,61.68
2019-03-03T13:46:10.415Z,61.28
2019-03-03T13:48:59.257Z,61.22
2019-03-03T13:51:48.102Z,61.13
2019-03-03T13:54:36.944Z,60.76
2019-03-03T13:57:26.048Z,60.78
2019-03-03T14:00:26.935Z,60.75
2019-03-03T14:03:15.821Z,60.89
2019-03-03T14:06:04.747Z,60.25
2019-03-03T14:08:53.711Z,60.22
2019-03-03T14:11:42.579Z,60.20
2019-03-03T14:14:31.516Z,60.15
2019-03-03T14:17:20.310Z,60.18
2019-03-03T14:20:28.481Z,59.54
2019-03-03T14:23:17.396Z,60.10
2019-03-03T14:26:06.220Z,59.49
2019-03-03T14:28:55.404Z,59.27
2019-03-03T14:31:45.723Z,59.41
2019-03-03T14:34:34.561Z,59.49
2019-03-03T14:37:23.380Z,59.46
2019-03-03T14:40:33.140Z,59.24
2019-03-03T14:43:22.044Z,59.73
2019-03-03T14:46:10.964Z,59.51
2019-03-03T14:48:59.806Z,59.41
2019-03-03T14:51:48.655Z,59.57
2019-03-03T14:54:37.523Z,59.47
2019-03-03T14:57:19.398Z,59.23
2019-03-03T15:03:24.278Z,59.59
2019-03-03T15:06:05.572Z,59.48
2019-03-03T15:08:54.399Z,59.46
2019-03-03T15:11:43.319Z,59.53
2019-03-03T15:14:32.147Z,59.46
2019-03-03T15:17:20.980Z,59.33
2019-03-03T15:20:10.004Z,59.55
2019-03-03T15:22:58.871Z,59.72
2019-03-03T15:25:47.747Z,59.46
2019-03-03T15:28:36.736Z,59.53
2019-03-03T15:31:25.630Z,59.23
2019-03-03T15:34:14.514Z,59.45
2019-03-03T15:40:32.224Z,59.66
2019-03-03T15:43:21.242Z,59.54
2019-03-03T15:46:10.116Z,59.51
2019-03-03T15:48:58.948Z,59.57
2019-03-03T15:51:47.770Z,59.28
2019-03-03T15:54:36.677Z,59.46
2019-03-03T15:57:25.505Z,59.35
2019-03-03T16:00:35.273Z,59.32
2019-03-03T16:03:17.179Z,58.91
2019-03-03T16:06:06.001Z,59.07
2019-03-03T16:08:54.925Z,59.26
2019-03-03T16:11:43.847Z,58.85
2019-03-03T16:14:32.750Z,58.99
2019-03-03T16:17:21.645Z,58.57
2019-03-03T16:20:31.357Z,58.90
2019-03-03T16:23:20.283Z,58.94
2019-03-03T16:26:09.191Z,58.93
2019-03-03T16:28:58.128Z,59.07
2019-03-03T16:31:46.948Z,58.99
2019-03-03T16:34:35.883Z,58.79
2019-03-03T16:37:24.773Z,58.81
2019-03-03T16:40:39.651Z,58.78
2019-03-03T16:43:23.543Z,58.86
2019-03-03T16:46:12.417Z,58.77
2019-03-03T16:49:01.267Z,58.49
2019-03-03T16:51:50.165Z,58.59
2019-03-03T16:54:39.002Z,58.66
2019-03-03T16:57:20.312Z,58.54
2019-03-03T17:00:30.067Z,58.43
2019-03-03T17:03:18.958Z,58.40
2019-03-03T17:06:07.821Z,58.40
2019-03-03T17:08:56.778Z,58.31
2019-03-03T17:11:45.569Z,58.38
2019-03-03T17:14:34.642Z,58.32
2019-03-03T17:17:23.566Z,58.04
2019-03-03T17:20:12.451Z,58.06
2019-03-03T17:23:01.455Z,58.02
2019-03-03T17:25:50.254Z,57.95
2019-03-03T17:31:46.914Z,57.92
2019-03-03T17:34:35.831Z,57.67
2019-03-03T17:37:24.633Z,57.58
2019-03-03T17:40:34.429Z,57.84
2019-03-03T17:43:23.351Z,57.72
2019-03-03T17:46:12.250Z,57.89
2019-03-03T17:49:01.246Z,57.79
2019-03-03T17:51:50.279Z,57.55
2019-03-03T17:54:39.097Z,57.53
2019-03-03T17:57:21.020Z,57.73
2019-03-03T18:03:40.143Z,57.31
2019-03-03T18:06:38.368Z,57.62
2019-03-03T18:12:29.116Z,57.55
2019-03-03T18:15:18.299Z,57.49
2019-03-03T18:18:07.200Z,57.45
2019-03-03T18:20:49.119Z,57.39
2019-03-03T18:23:38.042Z,57.20
2019-03-03T18:26:26.983Z,57.25
2019-03-03T18:29:15.881Z,57.17
2019-03-03T18:32:04.829Z,57.35
2019-03-03T18:34:53.806Z,57.09
2019-03-03T18:37:42.746Z,56.99
2019-03-03T18:40:31.676Z,56.96
2019-03-03T18:43:20.546Z,56.90
2019-03-03T18:46:09.546Z,57.03
2019-03-03T18:48:58.346Z,56.90
2019-03-03T18:51:47.268Z,56.88
2019-03-03T18:54:36.170Z,56.79
2019-03-03T18:57:24.989Z,56.91
2019-03-03T19:00:33.125Z,56.64
2019-03-03T19:03:15.024Z,56.71
2019-03-03T19:06:03.888Z,56.66
2019-03-03T19:08:33.399Z,56.75
2019-03-03T19:11:22.332Z,56.81
2019-03-03T19:14:11.212Z,56.63
2019-03-03T19:17:00.088Z,56.88
2019-03-03T19:19:49.033Z,56.57
2019-03-03T19:22:37.986Z,56.72
2019-03-03T19:25:26.885Z,56.70
2019-03-03T19:28:15.839Z,56.73
2019-03-03T19:31:04.860Z,56.89
2019-03-03T19:34:14.661Z,56.69
2019-03-03T19:37:03.639Z,56.72
2019-03-03T19:39:52.462Z,56.68
2019-03-03T19:42:41.384Z,56.90
2019-03-03T19:45:51.115Z,56.71
2019-03-03T19:48:40.118Z,56.75
2019-03-03T19:51:29.010Z,56.73
2019-03-03T19:54:17.893Z,57.03
2019-03-03T19:57:06.821Z,57.18
2019-03-03T19:59:55.762Z,57.20
2019-03-03T20:02:35.567Z,57.23
2019-03-03T20:05:24.552Z,57.25
2019-03-03T20:08:13.557Z,57.49
2019-03-03T20:11:02.378Z,57.38
2019-03-03T20:13:51.247Z,57.51
2019-03-03T20:16:40.194Z,57.56
2019-03-03T20:19:29.102Z,57.63
2019-03-03T20:22:18.013Z,57.50
2019-03-03T20:28:22.077Z,57.69
2019-03-03T20:31:10.927Z,57.64
2019-03-03T20:33:59.820Z,57.52
2019-03-03T20:36:48.688Z,57.95
2019-03-03T20:39:37.550Z,57.81
2019-03-03T20:42:26.391Z,57.99
2019-03-03T20:45:34.589Z,57.62
2019-03-03T20:48:23.489Z,57.86
2019-03-03T20:51:12.365Z,57.78
2019-03-03T20:53:54.082Z,57.75
2019-03-03T20:56:43.019Z,57.72
2019-03-03T20:59:31.890Z,57.55
2019-03-03T21:02:20.755Z,57.73
2019-03-03T21:05:02.810Z,57.77
2019-03-03T21:07:52.232Z,57.86
2019-03-03T21:10:42.338Z,57.95
2019-03-03T21:13:31.289Z,57.92
2019-03-03T21:16:20.119Z,58.16
2019-03-03T21:19:08.962Z,58.25
2019-03-03T21:21:57.868Z,58.36
2019-03-03T21:24:46.681Z,58.31
2019-03-03T21:27:35.558Z,58.43
2019-03-03T21:30:43.713Z,58.39
2019-03-03T21:33:32.599Z,58.52
2019-03-03T21:36:21.534Z,58.41
2019-03-03T21:39:10.998Z,58.55
2019-03-03T21:42:00.509Z,58.46
2019-03-03T21:44:49.370Z,58.47
2019-03-03T21:47:38.250Z,58.57
2019-03-03T21:50:48.089Z,58.56
2019-03-03T21:53:36.941Z,58.55
2019-03-03T21:56:18.735Z,58.65
2019-03-03T21:59:07.665Z,58.63
2019-03-03T22:01:56.566Z,58.67
2019-03-03T22:04:38.658Z,58.64
2019-03-03T22:07:27.472Z,58.65
2019-03-03T22:10:09.135Z,58.77
2019-03-03T22:16:13.929Z,58.72
2019-03-03T22:19:02.820Z,58.57
2019-03-03T22:21:51.623Z,58.70
2019-03-03T22:24:40.544Z,58.66
2019-03-03T22:27:29.351Z,58.63
2019-03-03T22:30:39.121Z,58.59
2019-03-03T22:33:27.976Z,58.44
2019-03-03T22:36:10.059Z,58.57
2019-03-03T22:38:58.906Z,58.63
2019-03-03T22:41:47.740Z,58.50
2019-03-03T22:44:38.100Z,58.57
2019-03-03T22:50:36.658Z,58.58
2019-03-03T22:53:25.541Z,58.60
2019-03-03T22:56:14.393Z,58.40
2019-03-03T22:59:03.317Z,58.38
2019-03-03T23:01:52.267Z,58.23
2019-03-03T23:05:02.173Z,58.39
2019-03-03T23:08:11.929Z,58.27
2019-03-03T23:11:39.409Z,58.26
2019-03-03T23:14:49.236Z,58.23
2019-03-03T23:17:58.975Z,58.00
2019-03-03T23:21:08.794Z,57.95
2019-03-03T23:24:36.303Z,58.00
2019-03-03T23:27:25.129Z,57.99
2019-03-03T23:30:14.042Z,57.84
2019-03-03T23:33:02.905Z,57.78
2019-03-03T23:35:51.726Z,57.72
2019-03-03T23:38:40.557Z,57.92
2019-03-03T23:41:29.353Z,57.58
2019-03-03T23:44:18.349Z,57.44
2019-03-03T23:47:07.149Z,57.41
2019-03-03T23:49:56.004Z,57.35
2019-03-03T23:52:44.906Z,57.13
2019-03-03T23:55:33.808Z,57.04
2019-03-03T23:58:22.624Z,56.96
